sensor_id;sensor_type;location;lat;lon;timestamp;P1;durP1;ratioP1;P2;durP2;ratioP2
17441;SDS011;8838;50.144;8.176;2022-07-11T00:02:07;5.28;;;2.92;;
17441;SDS011;8838;50.144;8.176;2022-07-11T00:04:35;6.85;;;3.40;;
17441;SDS011;8838;50.144;8.176;2022-07-11T00:07:03;6.10;;;3.60;;
17441;SDS011;8838;50.144;8.176;2022-07-11T00:09:31;5.63;;;3.20;;
17441;SDS011;8838;50.144;8.176;2022-07-11T00:11:58;6.28;;;3.35;;
17441;SDS011;8838;50.144;8.176;2022-07-11T00:14:26;4.25;;;3.25;;
17441;SDS011;8838;50.144;8.176;2022-07-11T00:16:53;4.75;;;2.95;;
17441;SDS011;8838;50.144;8.176;2022-07-11T00:19:21;5.22;;;3.35;;
17441;SDS011;8838;50.144;8.176;2022-07-11T00:21:49;6.38;;;3.20;;
17441;SDS011;8838;50.144;8.176;2022-07-11T00:24:17;4.72;;;2.90;;
17441;SDS011;8838;50.144;8.176;2022-07-11T00:26:46;6.70;;;3.38;;
17441;SDS011;8838;50.144;8.176;2022-07-11T00:29:14;4.60;;;3.10;;
17441;SDS011;8838;50.144;8.176;2022-07-11T00:31:41;8.15;;;3.40;;
17441;SDS011;8838;50.144;8.176;2022-07-11T00:34:08;3.67;;;2.67;;
17441;SDS011;8838;50.144;8.176;2022-07-11T00:36:35;4.70;;;3.00;;
17441;SDS011;8838;50.144;8.176;2022-07-11T00:39:03;5.95;;;3.30;;
17441;SDS011;8838;50.144;8.176;2022-07-11T00:41:30;4.60;;;3.17;;
17441;SDS011;8838;50.144;8.176;2022-07-11T00:43:59;4.10;;;2.80;;
17441;SDS011;8838;50.144;8.176;2022-07-11T00:46:26;6.30;;;2.90;;
17441;SDS011;8838;50.144;8.176;2022-07-11T00:48:54;6.53;;;2.92;;
17441;SDS011;8838;50.144;8.176;2022-07-11T00:51:22;7.10;;;3.28;;
17441;SDS011;8838;50.144;8.176;2022-07-11T00:53:50;3.60;;;2.42;;
17441;SDS011;8838;50.144;8.176;2022-07-11T00:56:19;6.85;;;2.65;;
17441;SDS011;8838;50.144;8.176;2022-07-11T00:58:47;6.22;;;2.85;;
17441;SDS011;8838;50.144;8.176;2022-07-11T01:01:16;5.28;;;2.50;;
17441;SDS011;8838;50.144;8.176;2022-07-11T01:03:43;5.68;;;2.22;;
17441;SDS011;8838;50.144;8.176;2022-07-11T01:06:10;6.43;;;2.92;;
17441;SDS011;8838;50.144;8.176;2022-07-11T01:08:38;4.97;;;2.80;;
17441;SDS011;8838;50.144;8.176;2022-07-11T01:11:06;6.25;;;2.60;;
17441;SDS011;8838;50.144;8.176;2022-07-11T01:13:37;3.58;;;2.65;;
17441;SDS011;8838;50.144;8.176;2022-07-11T01:16:08;5.60;;;2.60;;
17441;SDS011;8838;50.144;8.176;2022-07-11T01:18:37;6.78;;;2.88;;
17441;SDS011;8838;50.144;8.176;2022-07-11T01:21:07;5.40;;;2.90;;
17441;SDS011;8838;50.144;8.176;2022-07-11T01:23:43;4.38;;;2.67;;
17441;SDS011;8838;50.144;8.176;2022-07-11T01:26:10;4.72;;;2.70;;
17441;SDS011;8838;50.144;8.176;2022-07-11T01:28:37;3.70;;;2.90;;
17441;SDS011;8838;50.144;8.176;2022-07-11T01:31:04;4.05;;;2.60;;
17441;SDS011;8838;50.144;8.176;2022-07-11T01:33:31;5.20;;;3.15;;
17441;SDS011;8838;50.144;8.176;2022-07-11T01:35:59;5.38;;;2.90;;
17441;SDS011;8838;50.144;8.176;2022-07-11T01:38:27;4.03;;;2.63;;
17441;SDS011;8838;50.144;8.176;2022-07-11T01:40:55;4.13;;;2.70;;
17441;SDS011;8838;50.144;8.176;2022-07-11T01:43:22;4.22;;;2.58;;
17441;SDS011;8838;50.144;8.176;2022-07-11T01:45:50;4.53;;;2.50;;
17441;SDS011;8838;50.144;8.176;2022-07-11T01:48:17;4.00;;;2.83;;
17441;SDS011;8838;50.144;8.176;2022-07-11T01:50:44;5.53;;;2.88;;
17441;SDS011;8838;50.144;8.176;2022-07-11T01:53:11;4.57;;;2.42;;
17441;SDS011;8838;50.144;8.176;2022-07-11T01:55:38;4.95;;;2.50;;
17441;SDS011;8838;50.144;8.176;2022-07-11T01:58:06;4.95;;;2.80;;
17441;SDS011;8838;50.144;8.176;2022-07-11T02:00:33;5.25;;;2.65;;
17441;SDS011;8838;50.144;8.176;2022-07-11T02:03:00;4.72;;;2.63;;
17441;SDS011;8838;50.144;8.176;2022-07-11T02:05:27;9.27;;;2.67;;
17441;SDS011;8838;50.144;8.176;2022-07-11T02:07:54;4.85;;;2.50;;
17441;SDS011;8838;50.144;8.176;2022-07-11T02:10:37;2.92;;;2.40;;
17441;SDS011;8838;50.144;8.176;2022-07-11T02:13:07;3.97;;;2.80;;
17441;SDS011;8838;50.144;8.176;2022-07-11T02:15:35;4.75;;;2.83;;
17441;SDS011;8838;50.144;8.176;2022-07-11T02:18:02;4.82;;;2.88;;
17441;SDS011;8838;50.144;8.176;2022-07-11T02:20:29;5.03;;;2.65;;
17441;SDS011;8838;50.144;8.176;2022-07-11T02:22:55;3.58;;;2.55;;
17441;SDS011;8838;50.144;8.176;2022-07-11T02:25:23;3.78;;;2.92;;
17441;SDS011;8838;50.144;8.176;2022-07-11T02:27:50;4.68;;;2.90;;
17441;SDS011;8838;50.144;8.176;2022-07-11T02:30:18;5.35;;;2.72;;
17441;SDS011;8838;50.144;8.176;2022-07-11T02:32:45;5.80;;;2.80;;
17441;SDS011;8838;50.144;8.176;2022-07-11T02:35:12;4.25;;;2.88;;
17441;SDS011;8838;50.144;8.176;2022-07-11T02:37:39;4.68;;;3.00;;
17441;SDS011;8838;50.144;8.176;2022-07-11T02:40:06;3.72;;;2.78;;
17441;SDS011;8838;50.144;8.176;2022-07-11T02:42:33;3.53;;;2.78;;
17441;SDS011;8838;50.144;8.176;2022-07-11T02:45:01;3.45;;;2.60;;
17441;SDS011;8838;50.144;8.176;2022-07-11T02:47:29;5.88;;;2.97;;
17441;SDS011;8838;50.144;8.176;2022-07-11T02:49:56;3.60;;;2.65;;
17441;SDS011;8838;50.144;8.176;2022-07-11T02:52:23;3.97;;;2.72;;
17441;SDS011;8838;50.144;8.176;2022-07-11T02:54:50;6.00;;;2.97;;
17441;SDS011;8838;50.144;8.176;2022-07-11T02:57:17;3.45;;;2.40;;
17441;SDS011;8838;50.144;8.176;2022-07-11T02:59:44;5.85;;;2.60;;
17441;SDS011;8838;50.144;8.176;2022-07-11T03:02:11;4.13;;;2.60;;
17441;SDS011;8838;50.144;8.176;2022-07-11T03:04:39;6.18;;;2.30;;
17441;SDS011;8838;50.144;8.176;2022-07-11T03:07:06;3.97;;;2.60;;
17441;SDS011;8838;50.144;8.176;2022-07-11T03:09:33;4.72;;;2.63;;
17441;SDS011;8838;50.144;8.176;2022-07-11T03:12:00;3.95;;;2.45;;
17441;SDS011;8838;50.144;8.176;2022-07-11T03:14:27;3.88;;;2.30;;
17441;SDS011;8838;50.144;8.176;2022-07-11T03:16:54;4.68;;;2.30;;
17441;SDS011;8838;50.144;8.176;2022-07-11T03:19:21;4.80;;;2.35;;
17441;SDS011;8838;50.144;8.176;2022-07-11T03:21:49;3.70;;;2.60;;
17441;SDS011;8838;50.144;8.176;2022-07-11T03:24:17;4.60;;;2.47;;
17441;SDS011;8838;50.144;8.176;2022-07-11T03:26:44;4.60;;;2.53;;
17441;SDS011;8838;50.144;8.176;2022-07-11T03:29:11;5.80;;;2.65;;
17441;SDS011;8838;50.144;8.176;2022-07-11T03:31:37;3.42;;;2.47;;
17441;SDS011;8838;50.144;8.176;2022-07-11T03:34:04;4.65;;;2.70;;
17441;SDS011;8838;50.144;8.176;2022-07-11T03:36:31;5.40;;;2.45;;
17441;SDS011;8838;50.144;8.176;2022-07-11T03:38:59;3.92;;;2.53;;
17441;SDS011;8838;50.144;8.176;2022-07-11T03:41:26;7.10;;;2.85;;
17441;SDS011;8838;50.144;8.176;2022-07-11T03:43:53;4.45;;;2.78;;
17441;SDS011;8838;50.144;8.176;2022-07-11T03:46:21;4.70;;;2.38;;
17441;SDS011;8838;50.144;8.176;2022-07-11T03:48:48;3.78;;;2.13;;
17441;SDS011;8838;50.144;8.176;2022-07-11T03:51:15;4.05;;;2.45;;
17441;SDS011;8838;50.144;8.176;2022-07-11T03:53:42;3.55;;;2.60;;
17441;SDS011;8838;50.144;8.176;2022-07-11T03:56:11;4.80;;;2.75;;
17441;SDS011;8838;50.144;8.176;2022-07-11T03:58:37;4.60;;;2.47;;
17441;SDS011;8838;50.144;8.176;2022-07-11T04:01:04;4.28;;;2.60;;
17441;SDS011;8838;50.144;8.176;2022-07-11T04:03:31;5.95;;;2.70;;
17441;SDS011;8838;50.144;8.176;2022-07-11T04:05:58;4.53;;;2.40;;
17441;SDS011;8838;50.144;8.176;2022-07-11T04:08:25;3.45;;;2.28;;
17441;SDS011;8838;50.144;8.176;2022-07-11T04:10:52;3.78;;;2.55;;
17441;SDS011;8838;50.144;8.176;2022-07-11T04:13:20;5.95;;;2.88;;
17441;SDS011;8838;50.144;8.176;2022-07-11T04:15:47;5.70;;;3.00;;
17441;SDS011;8838;50.144;8.176;2022-07-11T04:18:14;7.22;;;3.05;;
17441;SDS011;8838;50.144;8.176;2022-07-11T04:20:41;6.30;;;2.80;;
17441;SDS011;8838;50.144;8.176;2022-07-11T04:23:07;10.05;;;3.30;;
17441;SDS011;8838;50.144;8.176;2022-07-11T04:25:34;6.55;;;3.35;;
17441;SDS011;8838;50.144;8.176;2022-07-11T04:28:01;4.93;;;2.90;;
17441;SDS011;8838;50.144;8.176;2022-07-11T04:30:29;5.03;;;3.10;;
17441;SDS011;8838;50.144;8.176;2022-07-11T04:32:56;4.20;;;2.70;;
17441;SDS011;8838;50.144;8.176;2022-07-11T04:35:23;6.25;;;2.83;;
17441;SDS011;8838;50.144;8.176;2022-07-11T04:37:52;5.22;;;2.97;;
17441;SDS011;8838;50.144;8.176;2022-07-11T04:40:19;4.47;;;2.67;;
17441;SDS011;8838;50.144;8.176;2022-07-11T04:42:48;6.70;;;3.00;;
17441;SDS011;8838;50.144;8.176;2022-07-11T04:45:15;6.18;;;3.08;;
17441;SDS011;8838;50.144;8.176;2022-07-11T04:47:44;8.02;;;2.97;;
17441;SDS011;8838;50.144;8.176;2022-07-11T04:50:11;7.22;;;2.90;;
17441;SDS011;8838;50.144;8.176;2022-07-11T04:52:38;4.57;;;2.60;;
17441;SDS011;8838;50.144;8.176;2022-07-11T04:55:05;5.60;;;2.78;;
17441;SDS011;8838;50.144;8.176;2022-07-11T04:57:32;6.15;;;2.88;;
17441;SDS011;8838;50.144;8.176;2022-07-11T04:59:59;4.45;;;3.00;;
17441;SDS011;8838;50.144;8.176;2022-07-11T05:02:26;7.75;;;3.20;;
17441;SDS011;8838;50.144;8.176;2022-07-11T05:04:54;6.95;;;2.80;;
17441;SDS011;8838;50.144;8.176;2022-07-11T05:07:21;7.25;;;3.08;;
17441;SDS011;8838;50.144;8.176;2022-07-11T05:09:48;7.22;;;3.08;;
17441;SDS011;8838;50.144;8.176;2022-07-11T05:12:15;9.90;;;3.00;;
17441;SDS011;8838;50.144;8.176;2022-07-11T05:14:42;7.28;;;3.00;;
17441;SDS011;8838;50.144;8.176;2022-07-11T05:17:10;8.68;;;3.20;;
17441;SDS011;8838;50.144;8.176;2022-07-11T05:19:37;7.43;;;3.20;;
17441;SDS011;8838;50.144;8.176;2022-07-11T05:22:05;6.15;;;3.70;;
17441;SDS011;8838;50.144;8.176;2022-07-11T05:24:32;7.15;;;3.83;;
17441;SDS011;8838;50.144;8.176;2022-07-11T05:26:59;8.85;;;3.60;;
17441;SDS011;8838;50.144;8.176;2022-07-11T05:29:26;8.13;;;3.47;;
17441;SDS011;8838;50.144;8.176;2022-07-11T05:31:53;8.65;;;3.25;;
17441;SDS011;8838;50.144;8.176;2022-07-11T05:34:20;6.85;;;4.03;;
17441;SDS011;8838;50.144;8.176;2022-07-11T05:36:47;6.45;;;3.35;;
17441;SDS011;8838;50.144;8.176;2022-07-11T05:39:15;8.52;;;3.63;;
17441;SDS011;8838;50.144;8.176;2022-07-11T05:41:42;9.52;;;4.25;;
17441;SDS011;8838;50.144;8.176;2022-07-11T05:44:09;9.20;;;5.00;;
17441;SDS011;8838;50.144;8.176;2022-07-11T05:46:36;7.50;;;3.78;;
17441;SDS011;8838;50.144;8.176;2022-07-11T05:49:05;8.18;;;4.78;;
17441;SDS011;8838;50.144;8.176;2022-07-11T05:51:32;5.45;;;3.97;;
17441;SDS011;8838;50.144;8.176;2022-07-11T05:54:00;8.73;;;4.60;;
17441;SDS011;8838;50.144;8.176;2022-07-11T05:56:28;9.02;;;4.75;;
17441;SDS011;8838;50.144;8.176;2022-07-11T05:58:55;8.32;;;4.65;;
17441;SDS011;8838;50.144;8.176;2022-07-11T06:01:22;10.00;;;4.90;;
17441;SDS011;8838;50.144;8.176;2022-07-11T06:03:50;6.68;;;5.00;;
17441;SDS011;8838;50.144;8.176;2022-07-11T06:06:17;11.20;;;5.40;;
17441;SDS011;8838;50.144;8.176;2022-07-11T06:08:44;12.40;;;6.40;;
17441;SDS011;8838;50.144;8.176;2022-07-11T06:11:11;12.02;;;5.88;;
17441;SDS011;8838;50.144;8.176;2022-07-11T06:13:41;8.63;;;5.60;;
17441;SDS011;8838;50.144;8.176;2022-07-11T06:16:09;11.85;;;5.13;;
17441;SDS011;8838;50.144;8.176;2022-07-11T06:18:37;11.63;;;5.57;;
17441;SDS011;8838;50.144;8.176;2022-07-11T06:21:05;10.48;;;5.60;;
17441;SDS011;8838;50.144;8.176;2022-07-11T06:23:32;9.98;;;5.40;;
17441;SDS011;8838;50.144;8.176;2022-07-11T06:26:00;11.52;;;5.13;;
17441;SDS011;8838;50.144;8.176;2022-07-11T06:28:27;9.55;;;5.13;;
17441;SDS011;8838;50.144;8.176;2022-07-11T06:30:55;10.80;;;5.70;;
17441;SDS011;8838;50.144;8.176;2022-07-11T06:33:22;10.20;;;5.97;;
17441;SDS011;8838;50.144;8.176;2022-07-11T06:35:49;14.57;;;6.07;;
17441;SDS011;8838;50.144;8.176;2022-07-11T06:38:16;10.38;;;6.75;;
17441;SDS011;8838;50.144;8.176;2022-07-11T06:40:44;12.20;;;8.20;;
17441;SDS011;8838;50.144;8.176;2022-07-11T06:43:11;16.45;;;8.45;;
17441;SDS011;8838;50.144;8.176;2022-07-11T06:45:39;14.43;;;8.98;;
17441;SDS011;8838;50.144;8.176;2022-07-11T06:48:07;16.75;;;8.90;;
17441;SDS011;8838;50.144;8.176;2022-07-11T06:50:34;16.52;;;9.70;;
17441;SDS011;8838;50.144;8.176;2022-07-11T06:53:01;17.88;;;10.23;;
17441;SDS011;8838;50.144;8.176;2022-07-11T06:55:28;16.90;;;11.63;;
17441;SDS011;8838;50.144;8.176;2022-07-11T06:57:55;15.38;;;9.98;;
17441;SDS011;8838;50.144;8.176;2022-07-11T07:00:22;11.85;;;8.85;;
17441;SDS011;8838;50.144;8.176;2022-07-11T07:02:50;10.73;;;8.13;;
17441;SDS011;8838;50.144;8.176;2022-07-11T07:05:18;14.07;;;7.63;;
17441;SDS011;8838;50.144;8.176;2022-07-11T07:07:45;13.43;;;8.00;;
17441;SDS011;8838;50.144;8.176;2022-07-11T07:10:12;16.77;;;8.23;;
17441;SDS011;8838;50.144;8.176;2022-07-11T07:12:38;12.32;;;6.93;;
17441;SDS011;8838;50.144;8.176;2022-07-11T07:15:06;10.18;;;6.82;;
17441;SDS011;8838;50.144;8.176;2022-07-11T07:17:34;10.10;;;6.47;;
17441;SDS011;8838;50.144;8.176;2022-07-11T07:20:01;15.90;;;7.22;;
17441;SDS011;8838;50.144;8.176;2022-07-11T07:22:30;13.38;;;7.28;;
17441;SDS011;8838;50.144;8.176;2022-07-11T07:24:57;9.55;;;5.85;;
17441;SDS011;8838;50.144;8.176;2022-07-11T07:27:24;7.72;;;5.65;;
17441;SDS011;8838;50.144;8.176;2022-07-11T07:29:51;8.98;;;6.25;;
17441;SDS011;8838;50.144;8.176;2022-07-11T07:32:20;9.52;;;6.10;;
17441;SDS011;8838;50.144;8.176;2022-07-11T07:34:46;9.82;;;5.93;;
17441;SDS011;8838;50.144;8.176;2022-07-11T07:37:13;8.73;;;5.90;;
17441;SDS011;8838;50.144;8.176;2022-07-11T07:39:42;9.00;;;6.10;;
17441;SDS011;8838;50.144;8.176;2022-07-11T07:42:09;7.57;;;5.45;;
17441;SDS011;8838;50.144;8.176;2022-07-11T07:44:35;8.80;;;6.55;;
17441;SDS011;8838;50.144;8.176;2022-07-11T07:47:02;13.63;;;6.20;;
17441;SDS011;8838;50.144;8.176;2022-07-11T07:49:29;10.77;;;6.22;;
17441;SDS011;8838;50.144;8.176;2022-07-11T07:51:56;8.15;;;5.40;;
17441;SDS011;8838;50.144;8.176;2022-07-11T07:54:23;10.70;;;5.70;;
17441;SDS011;8838;50.144;8.176;2022-07-11T07:56:51;8.10;;;6.35;;
17441;SDS011;8838;50.144;8.176;2022-07-11T07:59:18;11.23;;;7.22;;
17441;SDS011;8838;50.144;8.176;2022-07-11T08:01:45;9.57;;;7.05;;
17441;SDS011;8838;50.144;8.176;2022-07-11T08:04:12;10.70;;;7.30;;
17441;SDS011;8838;50.144;8.176;2022-07-11T08:06:39;9.50;;;6.22;;
17441;SDS011;8838;50.144;8.176;2022-07-11T08:09:07;9.38;;;6.90;;
17441;SDS011;8838;50.144;8.176;2022-07-11T08:11:34;13.90;;;7.05;;
17441;SDS011;8838;50.144;8.176;2022-07-11T08:14:03;12.82;;;6.90;;
17441;SDS011;8838;50.144;8.176;2022-07-11T08:16:33;7.90;;;5.35;;
17441;SDS011;8838;50.144;8.176;2022-07-11T08:19:00;9.82;;;5.60;;
17441;SDS011;8838;50.144;8.176;2022-07-11T08:21:29;9.38;;;4.60;;
17441;SDS011;8838;50.144;8.176;2022-07-11T08:23:57;6.22;;;4.40;;
17441;SDS011;8838;50.144;8.176;2022-07-11T08:26:24;8.45;;;4.03;;
17441;SDS011;8838;50.144;8.176;2022-07-11T08:28:51;7.30;;;4.05;;
17441;SDS011;8838;50.144;8.176;2022-07-11T08:31:19;8.13;;;4.55;;
17441;SDS011;8838;50.144;8.176;2022-07-11T08:33:46;10.00;;;5.07;;
17441;SDS011;8838;50.144;8.176;2022-07-11T08:36:13;7.05;;;4.05;;
17441;SDS011;8838;50.144;8.176;2022-07-11T08:38:40;8.63;;;4.60;;
17441;SDS011;8838;50.144;8.176;2022-07-11T08:41:11;6.68;;;4.00;;
17441;SDS011;8838;50.144;8.176;2022-07-11T08:43:40;7.03;;;3.88;;
17441;SDS011;8838;50.144;8.176;2022-07-11T08:46:08;6.00;;;3.53;;
17441;SDS011;8838;50.144;8.176;2022-07-11T08:48:38;10.48;;;4.07;;
17441;SDS011;8838;50.144;8.176;2022-07-11T08:51:05;5.90;;;3.78;;
17441;SDS011;8838;50.144;8.176;2022-07-11T08:53:36;6.30;;;3.17;;
17441;SDS011;8838;50.144;8.176;2022-07-11T08:56:07;6.05;;;3.97;;
17441;SDS011;8838;50.144;8.176;2022-07-11T08:58:40;8.80;;;3.67;;
17441;SDS011;8838;50.144;8.176;2022-07-11T09:01:10;8.18;;;3.65;;
17441;SDS011;8838;50.144;8.176;2022-07-11T09:03:39;7.70;;;3.30;;
17441;SDS011;8838;50.144;8.176;2022-07-11T09:06:07;8.02;;;3.88;;
17441;SDS011;8838;50.144;8.176;2022-07-11T09:08:35;5.30;;;3.38;;
17441;SDS011;8838;50.144;8.176;2022-07-11T09:11:03;7.15;;;3.97;;
17441;SDS011;8838;50.144;8.176;2022-07-11T09:13:30;6.45;;;4.07;;
17441;SDS011;8838;50.144;8.176;2022-07-11T09:16:00;5.82;;;3.70;;
17441;SDS011;8838;50.144;8.176;2022-07-11T09:18:28;7.88;;;3.65;;
17441;SDS011;8838;50.144;8.176;2022-07-11T09:20:59;4.38;;;3.28;;
17441;SDS011;8838;50.144;8.176;2022-07-11T09:23:44;7.75;;;4.28;;
17441;SDS011;8838;50.144;8.176;2022-07-11T09:26:29;5.72;;;3.90;;
17441;SDS011;8838;50.144;8.176;2022-07-11T09:29:03;8.75;;;2.92;;
17441;SDS011;8838;50.144;8.176;2022-07-11T09:31:32;4.07;;;3.03;;
17441;SDS011;8838;50.144;8.176;2022-07-11T09:34:00;3.50;;;3.20;;
17441;SDS011;8838;50.144;8.176;2022-07-11T09:36:44;6.88;;;3.50;;
17441;SDS011;8838;50.144;8.176;2022-07-11T09:39:13;3.78;;;2.47;;
17441;SDS011;8838;50.144;8.176;2022-07-11T09:41:42;5.45;;;3.08;;
17441;SDS011;8838;50.144;8.176;2022-07-11T09:44:12;8.00;;;2.90;;
17441;SDS011;8838;50.144;8.176;2022-07-11T09:46:42;5.38;;;2.85;;
17441;SDS011;8838;50.144;8.176;2022-07-11T09:49:10;4.93;;;2.58;;
17441;SDS011;8838;50.144;8.176;2022-07-11T09:51:39;6.53;;;2.95;;
17441;SDS011;8838;50.144;8.176;2022-07-11T09:54:08;3.28;;;2.53;;
17441;SDS011;8838;50.144;8.176;2022-07-11T09:56:37;3.60;;;2.45;;
17441;SDS011;8838;50.144;8.176;2022-07-11T09:59:06;7.60;;;2.50;;
17441;SDS011;8838;50.144;8.176;2022-07-11T10:01:35;5.82;;;2.60;;
17441;SDS011;8838;50.144;8.176;2022-07-11T10:04:03;4.10;;;2.30;;
17441;SDS011;8838;50.144;8.176;2022-07-11T10:06:31;5.55;;;2.25;;
17441;SDS011;8838;50.144;8.176;2022-07-11T10:08:58;4.15;;;2.17;;
17441;SDS011;8838;50.144;8.176;2022-07-11T10:11:28;6.72;;;2.85;;
17441;SDS011;8838;50.144;8.176;2022-07-11T10:13:57;4.45;;;2.85;;
17441;SDS011;8838;50.144;8.176;2022-07-11T10:16:27;3.13;;;2.38;;
17441;SDS011;8838;50.144;8.176;2022-07-11T10:19:04;4.25;;;2.50;;
17441;SDS011;8838;50.144;8.176;2022-07-11T10:21:43;3.88;;;2.65;;
17441;SDS011;8838;50.144;8.176;2022-07-11T10:24:17;3.05;;;2.75;;
17441;SDS011;8838;50.144;8.176;2022-07-11T10:26:54;3.40;;;2.65;;
17441;SDS011;8838;50.144;8.176;2022-07-11T10:29:28;3.85;;;2.30;;
17441;SDS011;8838;50.144;8.176;2022-07-11T10:32:03;6.88;;;2.70;;
17441;SDS011;8838;50.144;8.176;2022-07-11T10:34:31;3.05;;;2.60;;
17441;SDS011;8838;50.144;8.176;2022-07-11T10:36:59;3.33;;;2.60;;
17441;SDS011;8838;50.144;8.176;2022-07-11T10:39:27;3.33;;;2.70;;
17441;SDS011;8838;50.144;8.176;2022-07-11T10:41:56;5.20;;;2.90;;
17441;SDS011;8838;50.144;8.176;2022-07-11T10:44:24;4.68;;;2.80;;
17441;SDS011;8838;50.144;8.176;2022-07-11T10:46:52;3.75;;;2.72;;
17441;SDS011;8838;50.144;8.176;2022-07-11T10:49:22;4.20;;;2.70;;
17441;SDS011;8838;50.144;8.176;2022-07-11T10:52:02;2.75;;;2.50;;
17441;SDS011;8838;50.144;8.176;2022-07-11T10:54:33;4.95;;;3.13;;
17441;SDS011;8838;50.144;8.176;2022-07-11T10:57:16;6.85;;;2.85;;
17441;SDS011;8838;50.144;8.176;2022-07-11T10:59:55;2.88;;;2.22;;
17441;SDS011;8838;50.144;8.176;2022-07-11T11:02:23;3.75;;;2.35;;
17441;SDS011;8838;50.144;8.176;2022-07-11T11:04:51;4.03;;;2.72;;
17441;SDS011;8838;50.144;8.176;2022-07-11T11:07:33;13.45;;;3.03;;
17441;SDS011;8838;50.144;8.176;2022-07-11T11:10:04;6.88;;;2.83;;
17441;SDS011;8838;50.144;8.176;2022-07-11T11:15:45;4.32;;;2.75;;
17441;SDS011;8838;50.144;8.176;2022-07-11T11:26:42;3.75;;;2.55;;
17441;SDS011;8838;50.144;8.176;2022-07-11T11:29:15;5.20;;;2.60;;
17441;SDS011;8838;50.144;8.176;2022-07-11T11:31:55;5.53;;;2.40;;
17441;SDS011;8838;50.144;8.176;2022-07-11T11:34:23;4.47;;;2.50;;
17441;SDS011;8838;50.144;8.176;2022-07-11T11:36:51;2.70;;;2.30;;
17441;SDS011;8838;50.144;8.176;2022-07-11T11:39:27;3.03;;;2.60;;
17441;SDS011;8838;50.144;8.176;2022-07-11T11:42:08;2.95;;;2.35;;
17441;SDS011;8838;50.144;8.176;2022-07-11T11:44:49;4.70;;;2.35;;
17441;SDS011;8838;50.144;8.176;2022-07-11T11:47:17;4.75;;;2.70;;
17441;SDS011;8838;50.144;8.176;2022-07-11T11:49:45;2.45;;;2.08;;
17441;SDS011;8838;50.144;8.176;2022-07-11T11:52:13;3.03;;;2.33;;
17441;SDS011;8838;50.144;8.176;2022-07-11T11:54:40;2.47;;;2.10;;
17441;SDS011;8838;50.144;8.176;2022-07-11T11:57:08;5.35;;;3.30;;
17441;SDS011;8838;50.144;8.176;2022-07-11T11:59:37;3.20;;;2.90;;
17441;SDS011;8838;50.144;8.176;2022-07-11T12:02:06;4.00;;;2.60;;
17441;SDS011;8838;50.144;8.176;2022-07-11T12:04:33;3.78;;;2.90;;
17441;SDS011;8838;50.144;8.176;2022-07-11T12:07:02;4.05;;;2.90;;
17441;SDS011;8838;50.144;8.176;2022-07-11T12:09:30;3.05;;;2.67;;
17441;SDS011;8838;50.144;8.176;2022-07-11T12:12:16;10.13;;;6.55;;
17441;SDS011;8838;50.144;8.176;2022-07-11T12:15:02;2.60;;;2.40;;
17441;SDS011;8838;50.144;8.176;2022-07-11T12:17:31;2.72;;;2.50;;
17441;SDS011;8838;50.144;8.176;2022-07-11T12:20:00;3.40;;;2.50;;
17441;SDS011;8838;50.144;8.176;2022-07-11T12:22:27;2.70;;;2.28;;
17441;SDS011;8838;50.144;8.176;2022-07-11T12:24:54;4.45;;;2.58;;
17441;SDS011;8838;50.144;8.176;2022-07-11T12:27:24;4.72;;;2.10;;
17441;SDS011;8838;50.144;8.176;2022-07-11T12:29:51;3.63;;;2.47;;
17441;SDS011;8838;50.144;8.176;2022-07-11T12:32:19;2.30;;;2.10;;
17441;SDS011;8838;50.144;8.176;2022-07-11T12:34:49;5.43;;;2.63;;
17441;SDS011;8838;50.144;8.176;2022-07-11T12:37:17;2.40;;;2.20;;
17441;SDS011;8838;50.144;8.176;2022-07-11T12:39:48;4.50;;;2.30;;
17441;SDS011;8838;50.144;8.176;2022-07-11T12:42:20;2.60;;;2.40;;
17441;SDS011;8838;50.144;8.176;2022-07-11T12:44:54;3.00;;;2.42;;
17441;SDS011;8838;50.144;8.176;2022-07-11T12:47:24;2.53;;;2.28;;
17441;SDS011;8838;50.144;8.176;2022-07-11T12:49:54;2.78;;;2.20;;
17441;SDS011;8838;50.144;8.176;2022-07-11T12:52:21;3.17;;;2.28;;
17441;SDS011;8838;50.144;8.176;2022-07-11T12:54:49;3.47;;;2.17;;
17441;SDS011;8838;50.144;8.176;2022-07-11T12:57:20;5.40;;;2.78;;
17441;SDS011;8838;50.144;8.176;2022-07-11T12:59:47;3.50;;;2.00;;
17441;SDS011;8838;50.144;8.176;2022-07-11T13:02:14;4.88;;;2.67;;
17441;SDS011;8838;50.144;8.176;2022-07-11T13:04:42;3.45;;;2.22;;
17441;SDS011;8838;50.144;8.176;2022-07-11T13:07:24;2.55;;;2.35;;
17441;SDS011;8838;50.144;8.176;2022-07-11T13:10:11;7.50;;;2.85;;
17441;SDS011;8838;50.144;8.176;2022-07-11T13:12:40;4.43;;;2.95;;
17441;SDS011;8838;50.144;8.176;2022-07-11T13:15:07;5.57;;;2.63;;
17441;SDS011;8838;50.144;8.176;2022-07-11T13:17:36;6.85;;;2.80;;
17441;SDS011;8838;50.144;8.176;2022-07-11T13:20:04;16.35;;;3.60;;
17441;SDS011;8838;50.144;8.176;2022-07-11T13:22:38;4.18;;;2.88;;
17441;SDS011;8838;50.144;8.176;2022-07-11T13:25:05;8.30;;;3.10;;
17441;SDS011;8838;50.144;8.176;2022-07-11T13:27:33;2.58;;;2.38;;
17441;SDS011;8838;50.144;8.176;2022-07-11T13:30:00;3.65;;;2.20;;
17441;SDS011;8838;50.144;8.176;2022-07-11T13:32:34;2.83;;;2.10;;
17441;SDS011;8838;50.144;8.176;2022-07-11T13:35:01;3.20;;;2.90;;
17441;SDS011;8838;50.144;8.176;2022-07-11T13:37:29;3.47;;;2.72;;
17441;SDS011;8838;50.144;8.176;2022-07-11T13:39:57;3.17;;;2.88;;
17441;SDS011;8838;50.144;8.176;2022-07-11T13:42:24;5.35;;;2.75;;
17441;SDS011;8838;50.144;8.176;2022-07-11T13:44:51;5.30;;;2.55;;
17441;SDS011;8838;50.144;8.176;2022-07-11T13:47:18;2.10;;;1.90;;
17441;SDS011;8838;50.144;8.176;2022-07-11T13:49:45;2.95;;;2.00;;
17441;SDS011;8838;50.144;8.176;2022-07-11T13:52:12;4.05;;;2.40;;
17441;SDS011;8838;50.144;8.176;2022-07-11T13:54:39;5.57;;;2.80;;
17441;SDS011;8838;50.144;8.176;2022-07-11T13:57:07;3.47;;;2.60;;
17441;SDS011;8838;50.144;8.176;2022-07-11T13:59:35;3.83;;;2.60;;
17441;SDS011;8838;50.144;8.176;2022-07-11T14:02:02;2.70;;;2.30;;
17441;SDS011;8838;50.144;8.176;2022-07-11T14:04:30;2.92;;;2.30;;
17441;SDS011;8838;50.144;8.176;2022-07-11T14:06:57;4.53;;;2.40;;
17441;SDS011;8838;50.144;8.176;2022-07-11T14:09:24;5.82;;;2.85;;
17441;SDS011;8838;50.144;8.176;2022-07-11T14:11:51;5.05;;;3.58;;
17441;SDS011;8838;50.144;8.176;2022-07-11T14:14:19;5.55;;;3.15;;
17441;SDS011;8838;50.144;8.176;2022-07-11T14:16:47;4.03;;;2.85;;
17441;SDS011;8838;50.144;8.176;2022-07-11T14:19:14;4.63;;;2.83;;
17441;SDS011;8838;50.144;8.176;2022-07-11T14:21:41;4.65;;;2.75;;
17441;SDS011;8838;50.144;8.176;2022-07-11T14:24:08;5.40;;;2.42;;
17441;SDS011;8838;50.144;8.176;2022-07-11T14:26:36;5.53;;;2.92;;
17441;SDS011;8838;50.144;8.176;2022-07-11T14:29:04;5.68;;;2.72;;
17441;SDS011;8838;50.144;8.176;2022-07-11T14:31:33;5.25;;;2.90;;
17441;SDS011;8838;50.144;8.176;2022-07-11T14:34:00;3.53;;;3.10;;
17441;SDS011;8838;50.144;8.176;2022-07-11T14:36:27;4.55;;;3.20;;
17441;SDS011;8838;50.144;8.176;2022-07-11T14:38:54;5.32;;;3.38;;
17441;SDS011;8838;50.144;8.176;2022-07-11T14:41:21;6.80;;;3.10;;
17441;SDS011;8838;50.144;8.176;2022-07-11T14:43:48;4.68;;;3.10;;
17441;SDS011;8838;50.144;8.176;2022-07-11T14:46:16;6.18;;;3.40;;
17441;SDS011;8838;50.144;8.176;2022-07-11T14:48:44;4.20;;;3.67;;
17441;SDS011;8838;50.144;8.176;2022-07-11T14:51:11;4.40;;;3.30;;
17441;SDS011;8838;50.144;8.176;2022-07-11T14:53:39;4.40;;;3.42;;
17441;SDS011;8838;50.144;8.176;2022-07-11T14:56:06;3.05;;;2.75;;
17441;SDS011;8838;50.144;8.176;2022-07-11T14:58:34;4.85;;;2.45;;
17441;SDS011;8838;50.144;8.176;2022-07-11T15:01:01;4.78;;;2.63;;
17441;SDS011;8838;50.144;8.176;2022-07-11T15:03:28;3.00;;;2.80;;
17441;SDS011;8838;50.144;8.176;2022-07-11T15:06:06;3.05;;;2.70;;
17441;SDS011;8838;50.144;8.176;2022-07-11T15:08:34;3.00;;;2.70;;
17441;SDS011;8838;50.144;8.176;2022-07-11T15:11:19;5.10;;;2.90;;
17441;SDS011;8838;50.144;8.176;2022-07-11T15:14:04;3.63;;;3.00;;
17441;SDS011;8838;50.144;8.176;2022-07-11T15:16:31;3.97;;;3.08;;
17441;SDS011;8838;50.144;8.176;2022-07-11T15:18:58;5.32;;;2.70;;
17441;SDS011;8838;50.144;8.176;2022-07-11T15:21:27;4.28;;;2.92;;